sensor_id;sensor_type;location;lat;lon;timestamp;P1;durP1;ratioP1;P2;durP2;ratioP2
14100;SDS011;7127;49.372;8.166;2023-03-23T00:01:19;0.77;;;0.53;;
14100;SDS011;7127;49.372;8.166;2023-03-23T00:03:49;0.50;;;0.50;;
14100;SDS011;7127;49.372;8.166;2023-03-23T00:06:17;0.53;;;0.53;;
14100;SDS011;7127;49.372;8.166;2023-03-23T00:08:46;0.40;;;0.40;;
14100;SDS011;7127;49.372;8.166;2023-03-23T00:11:21;0.60;;;0.50;;
14100;SDS011;7127;49.372;8.166;2023-03-23T00:13:51;0.50;;;0.50;;
14100;SDS011;7127;49.372;8.166;2023-03-23T00:16:20;0.50;;;0.50;;
14100;SDS011;7127;49.372;8.166;2023-03-23T00:18:55;0.63;;;0.63;;
14100;SDS011;7127;49.372;8.166;2023-03-23T00:21:24;0.50;;;0.50;;
14100;SDS011;7127;49.372;8.166;2023-03-23T00:23:58;0.40;;;0.40;;
14100;SDS011;7127;49.372;8.166;2023-03-23T00:26:26;0.50;;;0.50;;
14100;SDS011;7127;49.372;8.166;2023-03-23T00:28:54;0.60;;;0.60;;
14100;SDS011;7127;49.372;8.166;2023-03-23T00:31:21;0.47;;;0.30;;
14100;SDS011;7127;49.372;8.166;2023-03-23T00:33:48;0.77;;;0.60;;
14100;SDS011;7127;49.372;8.166;2023-03-23T00:36:17;0.60;;;0.60;;
14100;SDS011;7127;49.372;8.166;2023-03-23T00:38:48;1.23;;;0.50;;
14100;SDS011;7127;49.372;8.166;2023-03-23T00:41:15;0.50;;;0.50;;
14100;SDS011;7127;49.372;8.166;2023-03-23T00:43:42;0.63;;;0.40;;
14100;SDS011;7127;49.372;8.166;2023-03-23T00:46:09;0.60;;;0.60;;
14100;SDS011;7127;49.372;8.166;2023-03-23T00:48:36;0.60;;;0.50;;
14100;SDS011;7127;49.372;8.166;2023-03-23T00:51:09;0.50;;;0.37;;
14100;SDS011;7127;49.372;8.166;2023-03-23T00:53:38;0.67;;;0.67;;
14100;SDS011;7127;49.372;8.166;2023-03-23T00:56:06;0.40;;;0.40;;
14100;SDS011;7127;49.372;8.166;2023-03-23T00:58:34;0.53;;;0.53;;
14100;SDS011;7127;49.372;8.166;2023-03-23T01:01:01;0.60;;;0.60;;
14100;SDS011;7127;49.372;8.166;2023-03-23T01:03:28;0.47;;;0.47;;
14100;SDS011;7127;49.372;8.166;2023-03-23T01:05:55;0.50;;;0.50;;
14100;SDS011;7127;49.372;8.166;2023-03-23T01:08:23;0.60;;;0.60;;
14100;SDS011;7127;49.372;8.166;2023-03-23T01:10:51;0.40;;;0.40;;
14100;SDS011;7127;49.372;8.166;2023-03-23T01:13:28;0.50;;;0.50;;
14100;SDS011;7127;49.372;8.166;2023-03-23T01:15:55;0.50;;;0.50;;
14100;SDS011;7127;49.372;8.166;2023-03-23T01:18:22;0.60;;;0.40;;
14100;SDS011;7127;49.372;8.166;2023-03-23T01:20:49;0.80;;;0.60;;
14100;SDS011;7127;49.372;8.166;2023-03-23T01:23:16;0.63;;;0.60;;
14100;SDS011;7127;49.372;8.166;2023-03-23T01:25:43;0.30;;;0.30;;
14100;SDS011;7127;49.372;8.166;2023-03-23T01:28:12;0.60;;;0.40;;
14100;SDS011;7127;49.372;8.166;2023-03-23T01:30:39;0.87;;;0.40;;
14100;SDS011;7127;49.372;8.166;2023-03-23T01:33:06;1.60;;;0.80;;
14100;SDS011;7127;49.372;8.166;2023-03-23T01:35:36;0.50;;;0.50;;
14100;SDS011;7127;49.372;8.166;2023-03-23T01:38:04;0.50;;;0.40;;
14100;SDS011;7127;49.372;8.166;2023-03-23T01:40:31;0.47;;;0.47;;
14100;SDS011;7127;49.372;8.166;2023-03-23T01:42:58;0.43;;;0.43;;
14100;SDS011;7127;49.372;8.166;2023-03-23T01:45:27;0.40;;;0.40;;
14100;SDS011;7127;49.372;8.166;2023-03-23T01:48:01;0.40;;;0.40;;
14100;SDS011;7127;49.372;8.166;2023-03-23T01:50:34;0.37;;;0.37;;
14100;SDS011;7127;49.372;8.166;2023-03-23T01:53:07;0.50;;;0.50;;
14100;SDS011;7127;49.372;8.166;2023-03-23T01:55:37;0.47;;;0.40;;
14100;SDS011;7127;49.372;8.166;2023-03-23T01:58:05;0.33;;;0.33;;
14100;SDS011;7127;49.372;8.166;2023-03-23T02:00:35;0.93;;;0.50;;
14100;SDS011;7127;49.372;8.166;2023-03-23T02:03:05;0.40;;;0.40;;
14100;SDS011;7127;49.372;8.166;2023-03-23T02:05:35;0.47;;;0.47;;
14100;SDS011;7127;49.372;8.166;2023-03-23T02:08:04;0.70;;;0.70;;
14100;SDS011;7127;49.372;8.166;2023-03-23T02:10:34;0.60;;;0.40;;
14100;SDS011;7127;49.372;8.166;2023-03-23T02:13:03;0.43;;;0.43;;
14100;SDS011;7127;49.372;8.166;2023-03-23T02:15:34;0.40;;;0.40;;
14100;SDS011;7127;49.372;8.166;2023-03-23T02:18:13;0.37;;;0.37;;
14100;SDS011;7127;49.372;8.166;2023-03-23T02:23:59;0.50;;;0.50;;
14100;SDS011;7127;49.372;8.166;2023-03-23T02:26:46;0.40;;;0.40;;
14100;SDS011;7127;49.372;8.166;2023-03-23T02:29:23;0.57;;;0.50;;
14100;SDS011;7127;49.372;8.166;2023-03-23T02:32:07;0.60;;;0.50;;
14100;SDS011;7127;49.372;8.166;2023-03-23T02:34:44;0.30;;;0.30;;
14100;SDS011;7127;49.372;8.166;2023-03-23T02:37:16;0.43;;;0.43;;
14100;SDS011;7127;49.372;8.166;2023-03-23T02:39:50;0.40;;;0.40;;
14100;SDS011;7127;49.372;8.166;2023-03-23T02:42:20;0.57;;;0.57;;
14100;SDS011;7127;49.372;8.166;2023-03-23T02:44:49;0.57;;;0.57;;
14100;SDS011;7127;49.372;8.166;2023-03-23T02:47:18;0.33;;;0.33;;
14100;SDS011;7127;49.372;8.166;2023-03-23T02:49:50;0.47;;;0.47;;
14100;SDS011;7127;49.372;8.166;2023-03-23T02:52:21;0.60;;;0.60;;
14100;SDS011;7127;49.372;8.166;2023-03-23T02:54:50;0.50;;;0.50;;
14100;SDS011;7127;49.372;8.166;2023-03-23T02:57:19;0.40;;;0.40;;
14100;SDS011;7127;49.372;8.166;2023-03-23T02:59:47;0.70;;;0.70;;
14100;SDS011;7127;49.372;8.166;2023-03-23T03:02:15;0.73;;;0.60;;
14100;SDS011;7127;49.372;8.166;2023-03-23T03:04:46;1.00;;;0.60;;
14100;SDS011;7127;49.372;8.166;2023-03-23T03:07:25;0.60;;;0.60;;
14100;SDS011;7127;49.372;8.166;2023-03-23T03:10:06;0.80;;;0.53;;
14100;SDS011;7127;49.372;8.166;2023-03-23T03:12:43;0.70;;;0.70;;
14100;SDS011;7127;49.372;8.166;2023-03-23T03:15:20;0.80;;;0.60;;
14100;SDS011;7127;49.372;8.166;2023-03-23T03:17:56;0.70;;;0.60;;
14100;SDS011;7127;49.372;8.166;2023-03-23T03:20:29;0.63;;;0.63;;
14100;SDS011;7127;49.372;8.166;2023-03-23T03:23:00;1.00;;;0.50;;
14100;SDS011;7127;49.372;8.166;2023-03-23T03:25:28;0.83;;;0.50;;
14100;SDS011;7127;49.372;8.166;2023-03-23T03:27:55;0.63;;;0.60;;
14100;SDS011;7127;49.372;8.166;2023-03-23T03:30:25;0.80;;;0.67;;
14100;SDS011;7127;49.372;8.166;2023-03-23T03:32:55;0.60;;;0.60;;
14100;SDS011;7127;49.372;8.166;2023-03-23T03:35:25;0.80;;;0.60;;
14100;SDS011;7127;49.372;8.166;2023-03-23T03:37:52;0.60;;;0.60;;
14100;SDS011;7127;49.372;8.166;2023-03-23T03:40:22;0.40;;;0.40;;
14100;SDS011;7127;49.372;8.166;2023-03-23T03:42:49;0.60;;;0.60;;
14100;SDS011;7127;49.372;8.166;2023-03-23T03:45:17;0.87;;;0.60;;
14100;SDS011;7127;49.372;8.166;2023-03-23T03:47:45;0.87;;;0.80;;
14100;SDS011;7127;49.372;8.166;2023-03-23T03:50:13;0.70;;;0.70;;
14100;SDS011;7127;49.372;8.166;2023-03-23T03:52:41;0.80;;;0.67;;
14100;SDS011;7127;49.372;8.166;2023-03-23T03:55:09;2.63;;;0.60;;
14100;SDS011;7127;49.372;8.166;2023-03-23T03:57:39;0.73;;;0.60;;
14100;SDS011;7127;49.372;8.166;2023-03-23T04:00:07;0.90;;;0.70;;
14100;SDS011;7127;49.372;8.166;2023-03-23T04:02:39;0.40;;;0.40;;
14100;SDS011;7127;49.372;8.166;2023-03-23T04:05:08;0.63;;;0.60;;
14100;SDS011;7127;49.372;8.166;2023-03-23T04:07:35;0.60;;;0.60;;
14100;SDS011;7127;49.372;8.166;2023-03-23T04:10:04;0.60;;;0.60;;
14100;SDS011;7127;49.372;8.166;2023-03-23T04:12:33;0.67;;;0.53;;
14100;SDS011;7127;49.372;8.166;2023-03-23T04:15:01;0.70;;;0.70;;
14100;SDS011;7127;49.372;8.166;2023-03-23T04:17:30;0.67;;;0.67;;
14100;SDS011;7127;49.372;8.166;2023-03-23T04:19:58;1.13;;;0.83;;
14100;SDS011;7127;49.372;8.166;2023-03-23T04:22:28;1.07;;;0.80;;
14100;SDS011;7127;49.372;8.166;2023-03-23T04:24:56;0.60;;;0.60;;
14100;SDS011;7127;49.372;8.166;2023-03-23T04:27:25;0.70;;;0.70;;
14100;SDS011;7127;49.372;8.166;2023-03-23T04:29:54;1.20;;;1.00;;
14100;SDS011;7127;49.372;8.166;2023-03-23T04:32:24;0.73;;;0.73;;
14100;SDS011;7127;49.372;8.166;2023-03-23T04:34:54;1.10;;;0.90;;
14100;SDS011;7127;49.372;8.166;2023-03-23T04:37:21;0.60;;;0.60;;
14100;SDS011;7127;49.372;8.166;2023-03-23T04:39:53;0.80;;;0.80;;
14100;SDS011;7127;49.372;8.166;2023-03-23T04:42:25;0.80;;;0.67;;
14100;SDS011;7127;49.372;8.166;2023-03-23T04:44:53;0.73;;;0.70;;
14100;SDS011;7127;49.372;8.166;2023-03-23T04:47:20;0.60;;;0.53;;
14100;SDS011;7127;49.372;8.166;2023-03-23T04:49:48;0.73;;;0.73;;
14100;SDS011;7127;49.372;8.166;2023-03-23T04:52:16;0.97;;;0.77;;
14100;SDS011;7127;49.372;8.166;2023-03-23T04:54:45;0.50;;;0.50;;
14100;SDS011;7127;49.372;8.166;2023-03-23T04:57:12;0.73;;;0.57;;
14100;SDS011;7127;49.372;8.166;2023-03-23T04:59:40;0.60;;;0.60;;
14100;SDS011;7127;49.372;8.166;2023-03-23T05:02:08;0.53;;;0.50;;
14100;SDS011;7127;49.372;8.166;2023-03-23T05:04:38;0.80;;;0.80;;
14100;SDS011;7127;49.372;8.166;2023-03-23T05:07:07;0.60;;;0.60;;
14100;SDS011;7127;49.372;8.166;2023-03-23T05:09:34;0.90;;;0.60;;
14100;SDS011;7127;49.372;8.166;2023-03-23T05:12:05;0.93;;;0.70;;
14100;SDS011;7127;49.372;8.166;2023-03-23T05:14:33;0.30;;;0.30;;
14100;SDS011;7127;49.372;8.166;2023-03-23T05:17:01;0.57;;;0.57;;
14100;SDS011;7127;49.372;8.166;2023-03-23T05:19:28;0.60;;;0.60;;
14100;SDS011;7127;49.372;8.166;2023-03-23T05:21:56;0.60;;;0.60;;
14100;SDS011;7127;49.372;8.166;2023-03-23T05:24:29;0.57;;;0.57;;
14100;SDS011;7127;49.372;8.166;2023-03-23T05:26:57;0.90;;;0.50;;
14100;SDS011;7127;49.372;8.166;2023-03-23T05:29:24;0.60;;;0.60;;
14100;SDS011;7127;49.372;8.166;2023-03-23T05:31:55;0.60;;;0.50;;
14100;SDS011;7127;49.372;8.166;2023-03-23T05:34:24;0.57;;;0.57;;
14100;SDS011;7127;49.372;8.166;2023-03-23T05:36:52;0.73;;;0.60;;
14100;SDS011;7127;49.372;8.166;2023-03-23T05:39:20;0.83;;;0.50;;
14100;SDS011;7127;49.372;8.166;2023-03-23T05:41:49;0.60;;;0.60;;
14100;SDS011;7127;49.372;8.166;2023-03-23T05:44:16;0.60;;;0.60;;
14100;SDS011;7127;49.372;8.166;2023-03-23T05:46:44;0.40;;;0.40;;
14100;SDS011;7127;49.372;8.166;2023-03-23T05:49:11;1.00;;;0.80;;
14100;SDS011;7127;49.372;8.166;2023-03-23T05:51:39;1.00;;;0.90;;
14100;SDS011;7127;49.372;8.166;2023-03-23T05:54:06;0.60;;;0.60;;
14100;SDS011;7127;49.372;8.166;2023-03-23T05:56:33;0.70;;;0.70;;
14100;SDS011;7127;49.372;8.166;2023-03-23T05:59:02;0.57;;;0.53;;
14100;SDS011;7127;49.372;8.166;2023-03-23T06:01:29;0.70;;;0.60;;
14100;SDS011;7127;49.372;8.166;2023-03-23T06:03:56;0.80;;;0.60;;
14100;SDS011;7127;49.372;8.166;2023-03-23T06:06:23;0.73;;;0.67;;
14100;SDS011;7127;49.372;8.166;2023-03-23T06:08:51;0.60;;;0.60;;
14100;SDS011;7127;49.372;8.166;2023-03-23T06:11:18;0.40;;;0.40;;
14100;SDS011;7127;49.372;8.166;2023-03-23T06:13:45;0.67;;;0.63;;
14100;SDS011;7127;49.372;8.166;2023-03-23T06:16:14;0.60;;;0.60;;
14100;SDS011;7127;49.372;8.166;2023-03-23T06:18:41;0.33;;;0.33;;
14100;SDS011;7127;49.372;8.166;2023-03-23T06:21:08;0.50;;;0.50;;
14100;SDS011;7127;49.372;8.166;2023-03-23T06:23:35;0.50;;;0.50;;
14100;SDS011;7127;49.372;8.166;2023-03-23T06:26:03;0.67;;;0.50;;
14100;SDS011;7127;49.372;8.166;2023-03-23T06:28:32;1.27;;;0.60;;
14100;SDS011;7127;49.372;8.166;2023-03-23T06:30:59;0.70;;;0.60;;
14100;SDS011;7127;49.372;8.166;2023-03-23T06:33:28;0.70;;;0.67;;
14100;SDS011;7127;49.372;8.166;2023-03-23T06:35:54;0.63;;;0.50;;
14100;SDS011;7127;49.372;8.166;2023-03-23T06:38:22;3.37;;;0.80;;
14100;SDS011;7127;49.372;8.166;2023-03-23T06:40:51;0.40;;;0.40;;
14100;SDS011;7127;49.372;8.166;2023-03-23T06:43:18;1.20;;;0.40;;
14100;SDS011;7127;49.372;8.166;2023-03-23T06:45:45;0.47;;;0.47;;
14100;SDS011;7127;49.372;8.166;2023-03-23T06:48:13;1.10;;;0.70;;
14100;SDS011;7127;49.372;8.166;2023-03-23T06:50:43;0.40;;;0.40;;
14100;SDS011;7127;49.372;8.166;2023-03-23T06:53:10;0.47;;;0.47;;
14100;SDS011;7127;49.372;8.166;2023-03-23T06:55:37;1.50;;;0.70;;
14100;SDS011;7127;49.372;8.166;2023-03-23T06:58:05;0.47;;;0.47;;
14100;SDS011;7127;49.372;8.166;2023-03-23T07:00:33;0.50;;;0.50;;
14100;SDS011;7127;49.372;8.166;2023-03-23T07:03:00;0.70;;;0.50;;
14100;SDS011;7127;49.372;8.166;2023-03-23T07:05:27;0.80;;;0.60;;
14100;SDS011;7127;49.372;8.166;2023-03-23T07:07:56;0.67;;;0.60;;
14100;SDS011;7127;49.372;8.166;2023-03-23T07:10:23;0.40;;;0.40;;
14100;SDS011;7127;49.372;8.166;2023-03-23T07:12:50;0.57;;;0.57;;
14100;SDS011;7127;49.372;8.166;2023-03-23T07:15:17;0.87;;;0.70;;
14100;SDS011;7127;49.372;8.166;2023-03-23T07:17:44;0.40;;;0.40;;
14100;SDS011;7127;49.372;8.166;2023-03-23T07:20:11;0.40;;;0.40;;
14100;SDS011;7127;49.372;8.166;2023-03-23T07:22:39;0.47;;;0.43;;
14100;SDS011;7127;49.372;8.166;2023-03-23T07:25:08;0.43;;;0.43;;
14100;SDS011;7127;49.372;8.166;2023-03-23T07:27:35;0.67;;;0.67;;
14100;SDS011;7127;49.372;8.166;2023-03-23T07:30:02;0.40;;;0.40;;
14100;SDS011;7127;49.372;8.166;2023-03-23T07:32:30;0.60;;;0.60;;
14100;SDS011;7127;49.372;8.166;2023-03-23T07:34:57;0.17;;;0.17;;
14100;SDS011;7127;49.372;8.166;2023-03-23T07:37:23;0.60;;;0.47;;
14100;SDS011;7127;49.372;8.166;2023-03-23T07:39:51;0.40;;;0.40;;
14100;SDS011;7127;49.372;8.166;2023-03-23T07:42:19;0.53;;;0.40;;
14100;SDS011;7127;49.372;8.166;2023-03-23T07:44:46;0.73;;;0.40;;
14100;SDS011;7127;49.372;8.166;2023-03-23T07:47:14;0.77;;;0.67;;
14100;SDS011;7127;49.372;8.166;2023-03-23T07:49:42;0.60;;;0.50;;
14100;SDS011;7127;49.372;8.166;2023-03-23T07:52:09;1.03;;;0.50;;
14100;SDS011;7127;49.372;8.166;2023-03-23T07:54:38;1.33;;;0.70;;
14100;SDS011;7127;49.372;8.166;2023-03-23T07:57:05;0.53;;;0.50;;
14100;SDS011;7127;49.372;8.166;2023-03-23T07:59:34;0.60;;;0.60;;
14100;SDS011;7127;49.372;8.166;2023-03-23T08:02:01;1.20;;;0.70;;
14100;SDS011;7127;49.372;8.166;2023-03-23T08:04:28;0.40;;;0.40;;
14100;SDS011;7127;49.372;8.166;2023-03-23T08:07:01;0.63;;;0.60;;
14100;SDS011;7127;49.372;8.166;2023-03-23T08:09:29;0.50;;;0.50;;
14100;SDS011;7127;49.372;8.166;2023-03-23T08:11:56;0.50;;;0.50;;
14100;SDS011;7127;49.372;8.166;2023-03-23T08:14:23;0.80;;;0.70;;
14100;SDS011;7127;49.372;8.166;2023-03-23T08:16:53;0.63;;;0.60;;
14100;SDS011;7127;49.372;8.166;2023-03-23T08:19:21;0.50;;;0.50;;
14100;SDS011;7127;49.372;8.166;2023-03-23T08:21:48;0.67;;;0.53;;
14100;SDS011;7127;49.372;8.166;2023-03-23T08:24:15;0.70;;;0.60;;
14100;SDS011;7127;49.372;8.166;2023-03-23T08:26:42;1.03;;;0.43;;
14100;SDS011;7127;49.372;8.166;2023-03-23T08:29:09;0.60;;;0.60;;
14100;SDS011;7127;49.372;8.166;2023-03-23T08:31:36;0.40;;;0.40;;
14100;SDS011;7127;49.372;8.166;2023-03-23T08:34:05;0.60;;;0.50;;
14100;SDS011;7127;49.372;8.166;2023-03-23T08:36:33;2.27;;;0.90;;
14100;SDS011;7127;49.372;8.166;2023-03-23T08:39:03;0.60;;;0.60;;
14100;SDS011;7127;49.372;8.166;2023-03-23T08:41:34;0.50;;;0.50;;
14100;SDS011;7127;49.372;8.166;2023-03-23T08:44:01;1.20;;;0.73;;
14100;SDS011;7127;49.372;8.166;2023-03-23T08:46:28;0.73;;;0.70;;
14100;SDS011;7127;49.372;8.166;2023-03-23T08:48:55;0.50;;;0.50;;
14100;SDS011;7127;49.372;8.166;2023-03-23T08:51:23;0.70;;;0.70;;
14100;SDS011;7127;49.372;8.166;2023-03-23T08:53:51;0.90;;;0.80;;
14100;SDS011;7127;49.372;8.166;2023-03-23T08:56:19;0.93;;;0.53;;
14100;SDS011;7127;49.372;8.166;2023-03-23T08:58:47;0.60;;;0.60;;
14100;SDS011;7127;49.372;8.166;2023-03-23T09:01:14;1.13;;;0.50;;
14100;SDS011;7127;49.372;8.166;2023-03-23T09:03:41;1.00;;;0.90;;
14100;SDS011;7127;49.372;8.166;2023-03-23T09:06:08;0.67;;;0.67;;
14100;SDS011;7127;49.372;8.166;2023-03-23T09:08:39;1.73;;;1.00;;
14100;SDS011;7127;49.372;8.166;2023-03-23T09:11:06;0.90;;;0.50;;
14100;SDS011;7127;49.372;8.166;2023-03-23T09:13:34;0.70;;;0.70;;
14100;SDS011;7127;49.372;8.166;2023-03-23T09:16:03;0.67;;;0.67;;
14100;SDS011;7127;49.372;8.166;2023-03-23T09:18:31;0.67;;;0.67;;
14100;SDS011;7127;49.372;8.166;2023-03-23T09:21:00;1.53;;;0.60;;
14100;SDS011;7127;49.372;8.166;2023-03-23T09:23:28;0.73;;;0.57;;
14100;SDS011;7127;49.372;8.166;2023-03-23T09:25:57;0.60;;;0.60;;
14100;SDS011;7127;49.372;8.166;2023-03-23T09:28:29;0.87;;;0.70;;
14100;SDS011;7127;49.372;8.166;2023-03-23T09:30:57;1.60;;;0.80;;
14100;SDS011;7127;49.372;8.166;2023-03-23T09:33:31;1.27;;;0.67;;
14100;SDS011;7127;49.372;8.166;2023-03-23T09:39:39;0.97;;;0.60;;
14100;SDS011;7127;49.372;8.166;2023-03-23T09:42:23;0.80;;;0.60;;
14100;SDS011;7127;49.372;8.166;2023-03-23T09:45:07;1.83;;;0.80;;
14100;SDS011;7127;49.372;8.166;2023-03-23T09:50:45;0.60;;;0.57;;
14100;SDS011;7127;49.372;8.166;2023-03-23T09:53:19;0.80;;;0.80;;
14100;SDS011;7127;49.372;8.166;2023-03-23T09:58:37;0.60;;;0.60;;
14100;SDS011;7127;49.372;8.166;2023-03-23T10:01:13;0.50;;;0.50;;
14100;SDS011;7127;49.372;8.166;2023-03-23T10:03:46;0.53;;;0.53;;
14100;SDS011;7127;49.372;8.166;2023-03-23T10:06:14;0.60;;;0.60;;
14100;SDS011;7127;49.372;8.166;2023-03-23T10:08:44;0.57;;;0.57;;
14100;SDS011;7127;49.372;8.166;2023-03-23T10:11:16;3.90;;;0.70;;
14100;SDS011;7127;49.372;8.166;2023-03-23T10:17:15;0.80;;;0.50;;
14100;SDS011;7127;49.372;8.166;2023-03-23T10:19:50;0.70;;;0.67;;
14100;SDS011;7127;49.372;8.166;2023-03-23T10:22:26;0.43;;;0.43;;
14100;SDS011;7127;49.372;8.166;2023-03-23T10:25:08;2.27;;;0.67;;
14100;SDS011;7127;49.372;8.166;2023-03-23T10:27:44;3.90;;;0.70;;
14100;SDS011;7127;49.372;8.166;2023-03-23T10:30:26;0.70;;;0.60;;
14100;SDS011;7127;49.372;8.166;2023-03-23T10:35:50;1.37;;;0.80;;
14100;SDS011;7127;49.372;8.166;2023-03-23T10:38:43;1.93;;;0.60;;
14100;SDS011;7127;49.372;8.166;2023-03-23T10:41:44;1.00;;;0.60;;
14100;SDS011;7127;49.372;8.166;2023-03-23T10:45:34;0.37;;;0.37;;
14100;SDS011;7127;49.372;8.166;2023-03-23T10:48:04;0.50;;;0.43;;
14100;SDS011;7127;49.372;8.166;2023-03-23T10:51:09;0.63;;;0.50;;
14100;SDS011;7127;49.372;8.166;2023-03-23T10:53:49;0.40;;;0.40;;
14100;SDS011;7127;49.372;8.166;2023-03-23T11:02:20;0.60;;;0.40;;
14100;SDS011;7127;49.372;8.166;2023-03-23T11:15:23;0.57;;;0.57;;
14100;SDS011;7127;49.372;8.166;2023-03-23T11:17:54;0.47;;;0.40;;
14100;SDS011;7127;49.372;8.166;2023-03-23T11:20:23;0.30;;;0.30;;
14100;SDS011;7127;49.372;8.166;2023-03-23T11:22:51;0.53;;;0.50;;
14100;SDS011;7127;49.372;8.166;2023-03-23T11:25:19;0.30;;;0.30;;
14100;SDS011;7127;49.372;8.166;2023-03-23T11:27:46;0.50;;;0.50;;
14100;SDS011;7127;49.372;8.166;2023-03-23T11:30:18;0.40;;;0.40;;
14100;SDS011;7127;49.372;8.166;2023-03-23T11:32:49;0.57;;;0.57;;
14100;SDS011;7127;49.372;8.166;2023-03-23T11:35:18;0.33;;;0.33;;
14100;SDS011;7127;49.372;8.166;2023-03-23T11:37:48;0.50;;;0.47;;
14100;SDS011;7127;49.372;8.166;2023-03-23T11:40:18;0.90;;;0.83;;
14100;SDS011;7127;49.372;8.166;2023-03-23T11:42:48;1.97;;;1.10;;
14100;SDS011;7127;49.372;8.166;2023-03-23T11:45:17;0.57;;;0.57;;
14100;SDS011;7127;49.372;8.166;2023-03-23T11:47:58;0.83;;;0.80;;
14100;SDS011;7127;49.372;8.166;2023-03-23T11:50:32;1.90;;;0.60;;
14100;SDS011;7127;49.372;8.166;2023-03-23T11:53:02;0.83;;;0.60;;
14100;SDS011;7127;49.372;8.166;2023-03-23T11:55:50;0.43;;;0.43;;
14100;SDS011;7127;49.372;8.166;2023-03-23T11:58:20;0.50;;;0.40;;
14100;SDS011;7127;49.372;8.166;2023-03-23T12:00:49;0.40;;;0.40;;
14100;SDS011;7127;49.372;8.166;2023-03-23T12:03:22;0.23;;;0.23;;
14100;SDS011;7127;49.372;8.166;2023-03-23T12:05:59;0.50;;;0.50;;
14100;SDS011;7127;49.372;8.166;2023-03-23T12:08:37;0.57;;;0.57;;
14100;SDS011;7127;49.372;8.166;2023-03-23T12:11:15;0.63;;;0.50;;
14100;SDS011;7127;49.372;8.166;2023-03-23T12:13:54;0.60;;;0.50;;
14100;SDS011;7127;49.372;8.166;2023-03-23T12:16:32;0.53;;;0.50;;
14100;SDS011;7127;49.372;8.166;2023-03-23T12:19:10;0.83;;;0.70;;
14100;SDS011;7127;49.372;8.166;2023-03-23T12:21:45;0.70;;;0.60;;
14100;SDS011;7127;49.372;8.166;2023-03-23T12:24:21;0.53;;;0.53;;
14100;SDS011;7127;49.372;8.166;2023-03-23T12:26:59;0.50;;;0.50;;
14100;SDS011;7127;49.372;8.166;2023-03-23T12:29:42;0.30;;;0.30;;
14100;SDS011;7127;49.372;8.166;2023-03-23T12:32:28;0.50;;;0.50;;
14100;SDS011;7127;49.372;8.166;2023-03-23T12:35:10;0.30;;;0.30;;
14100;SDS011;7127;49.372;8.166;2023-03-23T12:37:48;0.50;;;0.40;;
14100;SDS011;7127;49.372;8.166;2023-03-23T12:40:29;0.33;;;0.33;;
14100;SDS011;7127;49.372;8.166;2023-03-23T12:43:08;0.50;;;0.40;;
14100;SDS011;7127;49.372;8.166;2023-03-23T12:45:50;0.77;;;0.60;;
14100;SDS011;7127;49.372;8.166;2023-03-23T12:48:51;0.67;;;0.60;;
14100;SDS011;7127;49.372;8.166;2023-03-23T12:51:25;0.30;;;0.30;;
14100;SDS011;7127;49.372;8.166;2023-03-23T12:53:58;0.50;;;0.40;;
14100;SDS011;7127;49.372;8.166;2023-03-23T12:56:34;5.80;;;3.43;;
14100;SDS011;7127;49.372;8.166;2023-03-23T12:59:07;4.77;;;3.00;;
14100;SDS011;7127;49.372;8.166;2023-03-23T13:01:39;2.27;;;1.70;;
14100;SDS011;7127;49.372;8.166;2023-03-23T13:04:09;1.47;;;1.10;;
14100;SDS011;7127;49.372;8.166;2023-03-23T13:06:41;0.97;;;0.90;;
14100;SDS011;7127;49.372;8.166;2023-03-23T13:09:11;0.60;;;0.50;;
14100;SDS011;7127;49.372;8.166;2023-03-23T13:11:43;0.50;;;0.50;;
14100;SDS011;7127;49.372;8.166;2023-03-23T13:14:17;0.40;;;0.40;;
14100;SDS011;7127;49.372;8.166;2023-03-23T13:16:56;0.53;;;0.50;;
14100;SDS011;7127;49.372;8.166;2023-03-23T13:19:30;0.83;;;0.37;;
14100;SDS011;7127;49.372;8.166;2023-03-23T13:22:23;0.57;;;0.57;;
14100;SDS011;7127;49.372;8.166;2023-03-23T13:24:56;0.50;;;0.50;;
14100;SDS011;7127;49.372;8.166;2023-03-23T13:27:27;0.43;;;0.43;;
14100;SDS011;7127;49.372;8.166;2023-03-23T13:29:55;0.40;;;0.33;;
14100;SDS011;7127;49.372;8.166;2023-03-23T13:32:33;0.50;;;0.47;;
14100;SDS011;7127;49.372;8.166;2023-03-23T13:35:02;0.40;;;0.40;;
14100;SDS011;7127;49.372;8.166;2023-03-23T13:37:33;0.60;;;0.60;;
14100;SDS011;7127;49.372;8.166;2023-03-23T13:40:11;0.80;;;0.50;;
14100;SDS011;7127;49.372;8.166;2023-03-23T13:42:49;0.60;;;0.60;;
14100;SDS011;7127;49.372;8.166;2023-03-23T13:45:20;0.50;;;0.50;;
14100;SDS011;7127;49.372;8.166;2023-03-23T13:47:49;0.77;;;0.60;;
14100;SDS011;7127;49.372;8.166;2023-03-23T13:50:28;0.50;;;0.50;;
14100;SDS011;7127;49.372;8.166;2023-03-23T13:52:59;0.43;;;0.43;;
14100;SDS011;7127;49.372;8.166;2023-03-23T13:55:36;0.60;;;0.60;;
14100;SDS011;7127;49.372;8.166;2023-03-23T13:58:11;0.40;;;0.40;;
14100;SDS011;7127;49.372;8.166;2023-03-23T14:00:49;0.50;;;0.50;;
14100;SDS011;7127;49.372;8.166;2023-03-23T14:03:32;1.63;;;0.50;;
14100;SDS011;7127;49.372;8.166;2023-03-23T14:06:02;2.37;;;0.83;;
14100;SDS011;7127;49.372;8.166;2023-03-23T14:08:40;0.60;;;0.60;;
14100;SDS011;7127;49.372;8.166;2023-03-23T14:11:11;0.47;;;0.47;;
14100;SDS011;7127;49.372;8.166;2023-03-23T14:13:42;0.57;;;0.50;;
14100;SDS011;7127;49.372;8.166;2023-03-23T14:16:16;0.87;;;0.60;;
14100;SDS011;7127;49.372;8.166;2023-03-23T14:18:50;0.73;;;0.63;;
14100;SDS011;7127;49.372;8.166;2023-03-23T14:21:25;0.90;;;0.80;;
14100;SDS011;7127;49.372;8.166;2023-03-23T14:24:01;2.60;;;1.80;;
14100;SDS011;7127;49.372;8.166;2023-03-23T14:26:29;4.00;;;2.67;;
14100;SDS011;7127;49.372;8.166;2023-03-23T14:28:59;2.70;;;2.23;;
14100;SDS011;7127;49.372;8.166;2023-03-23T14:31:26;1.20;;;1.10;;
14100;SDS011;7127;49.372;8.166;2023-03-23T14:33:55;0.90;;;0.90;;
14100;SDS011;7127;49.372;8.166;2023-03-23T14:36:27;1.07;;;0.70;;
14100;SDS011;7127;49.372;8.166;2023-03-23T14:38:55;0.80;;;0.63;;
14100;SDS011;7127;49.372;8.166;2023-03-23T14:41:31;1.50;;;0.50;;
14100;SDS011;7127;49.372;8.166;2023-03-23T14:43:59;0.50;;;0.40;;
14100;SDS011;7127;49.372;8.166;2023-03-23T14:46:28;0.50;;;0.50;;
14100;SDS011;7127;49.372;8.166;2023-03-23T14:49:02;1.03;;;0.77;;
14100;SDS011;7127;49.372;8.166;2023-03-23T14:51:30;0.63;;;0.37;;
14100;SDS011;7127;49.372;8.166;2023-03-23T14:53:58;0.60;;;0.60;;
14100;SDS011;7127;49.372;8.166;2023-03-23T14:56:32;0.57;;;0.57;;
14100;SDS011;7127;49.372;8.166;2023-03-23T14:59:03;1.00;;;0.83;;
14100;SDS011;7127;49.372;8.166;2023-03-23T15:01:33;1.00;;;0.70;;
14100;SDS011;7127;49.372;8.166;2023-03-23T15:04:03;0.80;;;0.80;;
14100;SDS011;7127;49.372;8.166;2023-03-23T15:06:34;0.53;;;0.53;;
14100;SDS011;7127;49.372;8.166;2023-03-23T15:09:03;1.07;;;0.70;;
14100;SDS011;7127;49.372;8.166;2023-03-23T15:11:34;0.53;;;0.53;;
14100;SDS011;7127;49.372;8.166;2023-03-23T15:14:07;1.27;;;0.73;;
14100;SDS011;7127;49.372;8.166;2023-03-23T15:16:39;1.20;;;0.77;;
14100;SDS011;7127;49.372;8.166;2023-03-23T15:19:12;0.97;;;0.87;;
14100;SDS011;7127;49.372;8.166;2023-03-23T15:21:47;0.70;;;0.70;;
14100;SDS011;7127;49.372;8.166;2023-03-23T15:24:20;0.70;;;0.70;;
14100;SDS011;7127;49.372;8.166;2023-03-23T15:26:53;0.60;;;0.60;;
14100;SDS011;7127;49.372;8.166;2023-03-23T15:29:28;0.60;;;0.60;;
14100;SDS011;7127;49.372;8.166;2023-03-23T15:31:55;0.83;;;0.80;;
14100;SDS011;7127;49.372;8.166;2023-03-23T15:34:29;0.50;;;0.50;;
14100;SDS011;7127;49.372;8.166;2023-03-23T15:36:59;0.80;;;0.80;;
14100;SDS011;7127;49.372;8.166;2023-03-23T15:39:27;0.67;;;0.67;;
14100;SDS011;7127;49.372;8.166;2023-03-23T15:41:56;1.17;;;1.07;;
14100;SDS011;7127;49.372;8.166;2023-03-23T15:44:26;6.77;;;4.67;;
14100;SDS011;7127;49.372;8.166;2023-03-23T15:47:02;7.53;;;4.90;;
14100;SDS011;7127;49.372;8.166;2023-03-23T15:49:38;4.63;;;3.30;;
14100;SDS011;7127;49.372;8.166;2023-03-23T15:52:07;2.67;;;2.03;;
14100;SDS011;7127;49.372;8.166;2023-03-23T15:54:35;2.10;;;1.50;;
14100;SDS011;7127;49.372;8.166;2023-03-23T15:57:04;1.40;;;1.00;;
14100;SDS011;7127;49.372;8.166;2023-03-23T15:59:31;1.17;;;0.90;;